Details From LFMK - Salvaza
To LEVD - Valladolid - Villanubla
Flight Number -
Tags Generated
Created
Modified
Stats Distance 330 nm / 611 km
Max Altitude 0 ft / 0 m
Waypoints 3
Social Downloads 1
Likes 0
Share VATSIM

Download

Looking for another format? Having issues loading an existing format? Contact us
Advertisement - Login to hide

Notes

Generated

Route

LFMK VLD LEVD

ID Type Via Altitude Latitude Longitude Leg Dist Tot Dist Heading (true) Name
O LFMK APT - 0 ft / 0 m 43.21714˚ 2.29266˚ - 0 nm - -
VLD NDB - 0 ft / 0 m 41.78949˚ -4.73908˚ 322 nm 322 nm 257° / 252° VALLADOLID NDB
O LEVD APT - 0 ft / 0 m 41.71332˚ -4.86181˚ 7 nm 329 nm 230° / 230° Valladolid - Villanubla

Altitude Profile

Advertisement - Login to hide

Weather


0- 5 10 15 20 25 30 35+ Temperature / ° C

Clouds and Precipitation
Forecast for 2017-12-17 00:00 UTC. Updated 2 hours ago

Ground ~20,000 ft ~40,000 ft Winds

LFMK

Details ICAO LFMK (CCF)
Name Salvaza
Region France
Timezone Europe/Paris (UTC+1.0)
Stats Elevation 433 ft / 132 m (AMSL)
Location 43.216122° 2.305496°
Runways 1
Magnetic Variation 0.836° E

METAR

LFMK 162100Z AUTO 30013KT 9999 BKN058 04/02 Q1025

Decode

TAF

TAF LFMK 161802Z 1618/1715 CNL

Decode

Departure Runways

ID Width Length Bearing (true) Bearing (mag) Surface Threshold Offset Overrun Length
10 148 ft / 45 m 6,869 ft / 2,094 m 96.20° 95.36° Asphalt 479 ft / 146 m 0 ft / 0 m
28 148 ft / 45 m 6,869 ft / 2,094 m 276.22° 275.38° Asphalt 492 ft / 150 m 0 ft / 0 m

LEVD

Details ICAO LEVD (VLL)
Name Valladolid - Villanubla
Region Spain
Timezone Europe/Madrid (UTC+1.0)
Stats Elevation 2,775 ft / 846 m (AMSL)
Location 41.708270° -4.855278°
Runways 2
Magnetic Variation 1.131° W

METAR

LEVD 162030Z 10006KT 9999 FEW035 SCT044 02/M00 Q1027

Decode

TAF

TAF LEVD 161700Z 1618/1718 35009KT 9999 SCT030 TX07/1715Z TNM04/1706Z PROB30 TEMPO 1705/1708 2500 BR BKN003

Decode

Destination Runways

ID Width Length Bearing (true) Bearing (mag) Surface Threshold Offset Overrun Length
05 197 ft / 60 m 9,851 ft / 3,003 m 45.09° 46.22° Asphalt 0 ft / 0 m 676 ft / 206 m
15 197 ft / 60 m 2,975 ft / 907 m 144.18° 145.31° Dirt 0 ft / 0 m 213 ft / 65 m
23 197 ft / 60 m 9,851 ft / 3,003 m 225.10° 226.23° Asphalt 0 ft / 0 m 164 ft / 50 m
33 197 ft / 60 m 2,975 ft / 907 m 324.18° 325.31° Dirt 0 ft / 0 m 656 ft / 200 m

Approach Navaids

Runway Type Ident Frequency Range Bearing (true) Bearing (mag) Slope Elevation
23 Localiser IVD 109.30 MHz 18 nm / 33 km 225.13° 226.26° - 2,779 ft / 847 m (AMSL)
23 Glidescope IVD 109.30 MHz 10 nm / 19 km 225.10° 226.23° 2.80° 2,775 ft / 846 m (AMSL)